createdAt,value
2022-10-12T00:02:27.908Z,68.72
2022-10-12T00:04:54.797Z,68.78
2022-10-12T00:07:28.395Z,68.98
2022-10-12T00:10:03.164Z,68.71
2022-10-12T00:12:32.452Z,68.65
2022-10-12T00:15:16.932Z,68.38
2022-10-12T00:18:00.105Z,68.42
2022-10-12T00:20:27.200Z,68.31
2022-10-12T00:23:00.875Z,67.97
2022-10-12T00:25:30.331Z,68.18
2022-10-12T00:28:15.440Z,68.06
2022-10-12T00:30:55.282Z,67.78
2022-10-12T00:33:39.900Z,67.72
2022-10-12T00:36:38.865Z,67.49
2022-10-12T00:39:08.111Z,67.54
2022-10-12T00:41:52.363Z,67.49
2022-10-12T00:44:40.951Z,67.33
2022-10-12T00:47:34.872Z,67.35
2022-10-12T00:50:13.094Z,67.22
2022-10-12T00:53:03.019Z,67.36
2022-10-12T00:55:51.137Z,67.14
2022-10-12T00:58:24.573Z,67.10
2022-10-12T01:01:02.364Z,67.12
2022-10-12T01:03:42.496Z,67.10
2022-10-12T01:06:25.936Z,66.98
2022-10-12T01:09:04.961Z,66.86
2022-10-12T01:11:39.018Z,66.74
2022-10-12T01:14:11.716Z,67.05
2022-10-12T01:16:40.916Z,66.68
2022-10-12T01:19:33.704Z,67.17
2022-10-12T01:22:09.594Z,67.16
2022-10-12T01:25:01.192Z,67.21
2022-10-12T01:27:34.118Z,67.44
2022-10-12T01:30:26.015Z,67.36
2022-10-12T01:32:57.634Z,67.24
2022-10-12T01:35:36.747Z,67.48
2022-10-12T01:38:32.650Z,67.68
2022-10-12T01:41:01.537Z,67.66
2022-10-12T01:43:40.709Z,67.84
2022-10-12T01:46:27.634Z,68.15
2022-10-12T01:48:56.230Z,68.45
2022-10-12T01:51:31.340Z,68.54
2022-10-12T01:54:20.049Z,69.00
2022-10-12T01:57:09.869Z,68.70
2022-10-12T02:00:03.735Z,68.62
2022-10-12T02:02:31.100Z,68.82
2022-10-12T02:05:08.777Z,68.62
2022-10-12T02:07:48.264Z,68.63
2022-10-12T02:10:57.995Z,68.69
2022-10-12T02:13:27.280Z,68.84
2022-10-12T02:15:55.009Z,69.28
2022-10-12T02:18:23.310Z,69.55
2022-10-12T02:21:00.481Z,69.42
2022-10-12T02:23:45.286Z,69.72
2022-10-12T02:26:30.537Z,69.72
2022-10-12T02:29:09.444Z,70.02
2022-10-12T02:32:17.322Z,70.11
2022-10-12T02:35:28.159Z,70.40
2022-10-12T02:38:12.358Z,70.52
2022-10-12T02:40:52.586Z,70.62
2022-10-12T02:43:54.337Z,71.24
2022-10-12T02:46:30.429Z,72.42
2022-10-12T02:49:08.237Z,73.79
2022-10-12T02:51:42.800Z,74.81
2022-10-12T02:54:38.701Z,75.60
2022-10-12T02:57:11.025Z,76.48
2022-10-12T02:59:53.497Z,76.35
2022-10-12T03:02:29.756Z,77.02
2022-10-12T03:05:00.146Z,77.51
2022-10-12T03:07:33.197Z,77.81
2022-10-12T03:10:07.830Z,78.76
2022-10-12T03:12:36.986Z,79.94
2022-10-12T03:15:16.452Z,80.59
2022-10-12T03:17:56.489Z,81.01
2022-10-12T03:20:29.511Z,81.25
2022-10-12T03:23:03.018Z,81.39
2022-10-12T03:25:34.933Z,81.52
2022-10-12T03:28:12.734Z,81.62
2022-10-12T03:30:43.597Z,81.18
2022-10-12T03:33:20.172Z,80.36
2022-10-12T03:36:02.397Z,79.89
2022-10-12T03:38:31.080Z,79.54
2022-10-12T03:41:06.698Z,78.68
2022-10-12T03:43:48.198Z,78.16
2022-10-12T03:46:18.315Z,77.81
2022-10-12T03:49:08.332Z,77.55
2022-10-12T03:51:43.948Z,77.64
2022-10-12T03:54:15.420Z,78.15
2022-10-12T03:56:45.426Z,78.64
2022-10-12T03:59:17.978Z,79.09
2022-10-12T04:02:16.851Z,80.00
2022-10-12T04:04:56.024Z,80.71
2022-10-12T04:07:34.732Z,81.38
2022-10-12T04:13:07.040Z,81.32
2022-10-12T04:15:47.241Z,81.95
2022-10-12T04:18:32.966Z,81.53
2022-10-12T04:21:10.200Z,82.12
2022-10-12T04:23:36.959Z,83.30
2022-10-12T04:26:05.341Z,83.99
2022-10-12T04:28:36.562Z,84.72
2022-10-12T04:31:03.364Z,85.06
2022-10-12T04:33:38.008Z,85.02
2022-10-12T04:36:17.942Z,85.40
2022-10-12T04:38:44.690Z,85.75
2022-10-12T04:41:20.552Z,85.55
2022-10-12T04:43:55.824Z,85.07
2022-10-12T04:46:27.125Z,85.07
2022-10-12T04:48:59.282Z,84.73
2022-10-12T04:51:40.314Z,84.49
2022-10-12T04:54:07.226Z,85.53
2022-10-12T04:56:47.736Z,85.87
2022-10-12T04:59:17.428Z,86.45
2022-10-12T05:01:56.500Z,86.19
2022-10-12T05:04:29.263Z,86.72
2022-10-12T05:06:55.988Z,86.79
2022-10-12T05:09:22.786Z,86.45
2022-10-12T05:11:59.274Z,85.74
2022-10-12T05:14:36.448Z,85.50
2022-10-12T05:17:12.518Z,85.32
2022-10-12T05:19:42.231Z,84.60
2022-10-12T05:22:12.831Z,84.90
2022-10-12T05:24:42.625Z,85.22
2022-10-12T05:27:34.406Z,85.16
2022-10-12T05:30:03.160Z,85.01
2022-10-12T05:35:40.997Z,85.04
2022-10-12T05:38:19.194Z,85.18
2022-10-12T05:40:49.999Z,85.91
2022-10-12T05:43:21.445Z,85.85
2022-10-12T05:46:14.597Z,85.79
2022-10-12T05:48:41.401Z,86.48
2022-10-12T05:51:33.496Z,87.21
2022-10-12T05:54:24.943Z,88.27
2022-10-12T05:57:00.480Z,88.50
2022-10-12T05:59:46.463Z,88.77
2022-10-12T06:10:53.932Z,90.67
2022-10-12T06:13:30.006Z,90.75
2022-10-12T06:19:28.908Z,90.39
2022-10-12T06:25:54.413Z,89.62
2022-10-12T06:28:21.585Z,89.57
2022-10-12T06:30:59.805Z,89.72
2022-10-12T06:33:32.644Z,89.99
2022-10-12T06:35:59.253Z,90.30
2022-10-12T06:38:31.871Z,91.06
2022-10-12T06:40:58.480Z,91.59
2022-10-12T06:43:27.199Z,92.27
2022-10-12T06:46:01.797Z,93.31
2022-10-12T06:48:57.894Z,93.94
2022-10-12T06:51:35.201Z,95.19
2022-10-12T06:54:27.773Z,95.69
2022-10-12T06:57:02.572Z,96.70
2022-10-12T07:01:01.939Z,97.82
2022-10-12T07:03:28.609Z,99.65
2022-10-12T07:06:04.522Z,100.00
2022-10-12T07:09:55.504Z,100.00
2022-10-12T07:12:24.234Z,100.00
2022-10-12T07:15:31.305Z,100.00
2022-10-12T07:17:57.993Z,100.00
2022-10-12T07:24:38.317Z,100.00
2022-10-12T07:27:42.038Z,100.00
2022-10-12T07:30:35.699Z,100.00
2022-10-12T07:36:21.896Z,100.00
2022-10-12T07:38:49.261Z,100.00
2022-10-12T07:41:18.565Z,100.00
2022-10-12T07:43:45.618Z,100.00
2022-10-12T07:46:49.121Z,100.00
2022-10-12T07:50:18.438Z,100.00
2022-10-12T07:57:11.587Z,100.00
2022-10-12T07:59:53.118Z,100.00
2022-10-12T08:02:20.099Z,100.00
2022-10-12T08:08:45.771Z,100.00
2022-10-12T08:11:28.519Z,100.00
2022-10-12T08:13:56.066Z,100.00
2022-10-12T08:16:23.071Z,100.00
2022-10-12T08:18:49.772Z,100.00
2022-10-12T08:27:25.900Z,100.00
2022-10-12T08:29:53.084Z,100.00
2022-10-12T08:32:21.767Z,100.00
2022-10-12T08:36:08.333Z,100.00
2022-10-12T08:43:33.659Z,100.00
2022-10-12T08:51:19.573Z,100.00
2022-10-12T08:53:56.696Z,100.00
2022-10-12T09:01:47.670Z,100.00
2022-10-12T09:05:11.678Z,100.00
2022-10-12T09:13:02.205Z,100.00
2022-10-12T09:20:46.544Z,100.00
2022-10-12T09:23:27.468Z,100.00
2022-10-12T09:25:59.792Z,100.00
2022-10-12T09:29:39.495Z,100.00
2022-10-12T09:36:35.651Z,100.00
2022-10-12T09:43:42.048Z,100.00
2022-10-12T09:46:51.231Z,100.00
2022-10-12T09:53:05.134Z,100.00
2022-10-12T09:56:19.481Z,100.00
2022-10-12T09:58:56.266Z,100.00
2022-10-12T10:01:58.012Z,100.00
2022-10-12T10:05:04.143Z,100.00
2022-10-12T10:08:00.912Z,100.00
2022-10-12T10:10:39.256Z,100.00
2022-10-12T10:16:27.539Z,100.00
2022-10-12T10:19:28.108Z,100.00
2022-10-12T10:25:23.747Z,100.00
2022-10-12T10:31:33.298Z,100.00
2022-10-12T10:37:38.729Z,100.00
2022-10-12T10:40:34.762Z,100.00
2022-10-12T10:43:51.087Z,100.00
2022-10-12T10:46:36.838Z,100.00
2022-10-12T10:50:14.241Z,100.00
2022-10-12T10:53:05.672Z,100.00
2022-10-12T10:56:24.443Z,100.00
2022-10-12T10:59:19.592Z,100.00
2022-10-12T11:02:45.511Z,100.00
2022-10-12T11:06:18.193Z,100.00
2022-10-12T11:09:22.476Z,100.00
2022-10-12T11:19:46.030Z,100.00
2022-10-12T11:26:23.363Z,100.00
2022-10-12T11:29:15.281Z,100.00
2022-10-12T11:38:27.227Z,100.00
2022-10-12T11:41:36.438Z,100.00
2022-10-12T11:48:05.581Z,100.00
2022-10-12T11:50:49.944Z,100.00
2022-10-12T11:57:00.992Z,100.00
2022-10-12T12:03:26.912Z,100.00
2022-10-12T12:06:31.334Z,100.00
2022-10-12T12:09:55.003Z,100.00
2022-10-12T12:12:38.705Z,100.00
2022-10-12T12:15:34.506Z,100.00
2022-10-12T12:18:58.428Z,100.00
2022-10-12T12:22:14.517Z,100.00
2022-10-12T12:25:25.235Z,100.00
2022-10-12T12:28:32.268Z,100.00
2022-10-12T12:31:49.937Z,100.00
2022-10-12T12:34:54.454Z,100.00
2022-10-12T12:41:24.003Z,100.00
2022-10-12T12:44:32.820Z,100.00
2022-10-12T12:50:55.432Z,100.00
2022-10-12T12:53:39.086Z,100.00
2022-10-12T12:56:45.887Z,100.00
2022-10-12T13:04:06.154Z,100.00
2022-10-12T13:07:19.303Z,100.00
2022-10-12T13:14:23.448Z,100.00
2022-10-12T13:20:45.793Z,100.00
2022-10-12T13:24:11.136Z,100.00
2022-10-12T13:27:48.402Z,100.00
2022-10-12T13:34:56.066Z,100.00
2022-10-12T13:37:43.254Z,100.00
2022-10-12T13:41:17.527Z,100.00
2022-10-12T13:48:34.339Z,100.00
2022-10-12T13:52:12.064Z,100.00
2022-10-12T13:55:14.210Z,100.00
2022-10-12T14:01:40.064Z,100.00
2022-10-12T14:07:29.494Z,100.00
2022-10-12T14:11:00.851Z,100.00
2022-10-12T14:14:15.868Z,100.00
2022-10-12T14:19:57.891Z,100.00
2022-10-12T14:22:57.550Z,100.00
2022-10-12T14:25:58.292Z,100.00
2022-10-12T14:28:39.242Z,100.00
2022-10-12T14:31:46.154Z,100.00
2022-10-12T14:38:31.072Z,100.00
2022-10-12T14:40:56.750Z,100.00
2022-10-12T14:43:41.320Z,100.00
2022-10-12T14:46:29.495Z,100.00
2022-10-12T14:49:09.346Z,100.00
2022-10-12T14:52:11.712Z,100.00
2022-10-12T14:55:04.733Z,100.00
2022-10-12T14:57:44.334Z,100.00
2022-10-12T15:00:52.315Z,100.00
2022-10-12T15:04:11.144Z,100.00
2022-10-12T15:09:54.730Z,100.00
2022-10-12T15:12:35.344Z,100.00
2022-10-12T15:15:50.389Z,100.00
2022-10-12T15:18:35.084Z,100.00
2022-10-12T15:21:26.138Z,100.00
2022-10-12T15:27:35.171Z,100.00
2022-10-12T15:30:14.060Z,100.00
2022-10-12T15:32:52.596Z,100.00
2022-10-12T15:35:45.844Z,100.00
2022-10-12T15:38:22.473Z,100.00
2022-10-12T15:44:46.899Z,100.00
2022-10-12T15:47:33.847Z,100.00
2022-10-12T15:50:54.908Z,100.00
2022-10-12T15:56:22.245Z,100.00
2022-10-12T15:58:52.250Z,100.00
2022-10-12T16:01:37.495Z,100.00
2022-10-12T16:04:05.859Z,100.00
2022-10-12T16:06:35.290Z,100.00
2022-10-12T16:09:05.352Z,100.00
2022-10-12T16:11:31.985Z,100.00
2022-10-12T16:17:31.453Z,100.00
2022-10-12T16:20:14.713Z,100.00
2022-10-12T16:22:44.763Z,100.00
2022-10-12T16:28:21.931Z,100.00
2022-10-12T16:31:01.826Z,100.00
2022-10-12T16:33:28.542Z,100.00
2022-10-12T16:35:55.293Z,100.00
2022-10-12T16:38:28.060Z,100.00
2022-10-12T16:41:11.305Z,100.00
2022-10-12T16:43:41.207Z,100.00
2022-10-12T16:46:08.260Z,100.00
2022-10-12T16:48:44.519Z,100.00
2022-10-12T16:51:39.597Z,100.00
2022-10-12T16:54:11.183Z,100.00
2022-10-12T16:56:57.850Z,100.00
2022-10-12T16:59:25.973Z,100.00
2022-10-12T17:02:22.486Z,100.00
2022-10-12T17:04:49.351Z,100.00
2022-10-12T17:07:26.273Z,100.00
2022-10-12T17:13:18.042Z,100.00
2022-10-12T17:15:51.864Z,100.00
2022-10-12T17:18:34.538Z,100.00
2022-10-12T17:21:16.974Z,100.00
2022-10-12T17:23:56.237Z,100.00
2022-10-12T17:26:26.320Z,100.00
2022-10-12T17:29:15.507Z,99.75
2022-10-12T17:31:48.565Z,99.55
2022-10-12T17:37:15.943Z,98.55
2022-10-12T17:40:00.872Z,98.07
2022-10-12T17:42:28.382Z,98.23
2022-10-12T17:44:59.408Z,98.54
2022-10-12T17:47:31.624Z,97.35
2022-10-12T17:49:59.319Z,98.34
2022-10-12T17:53:10.889Z,97.91
2022-10-12T17:55:48.478Z,98.43
2022-10-12T17:58:22.739Z,97.69
2022-10-12T18:00:51.714Z,97.22
2022-10-12T18:03:28.877Z,95.56
2022-10-12T18:05:57.925Z,94.09
2022-10-12T18:08:26.210Z,94.28
2022-10-12T18:10:59.593Z,94.18
2022-10-12T18:13:26.913Z,94.16
2022-10-12T18:15:56.880Z,92.72
2022-10-12T18:18:27.770Z,92.45
2022-10-12T18:21:00.186Z,92.79
2022-10-12T18:23:41.117Z,93.02
2022-10-12T18:28:56.327Z,90.84
2022-10-12T18:31:28.090Z,90.12
2022-10-12T18:33:58.184Z,89.24
2022-10-12T18:36:26.990Z,88.88
2022-10-12T18:38:53.999Z,88.34
2022-10-12T18:41:48.156Z,87.46
2022-10-12T18:44:22.194Z,87.25
2022-10-12T18:46:58.180Z,87.33
2022-10-12T18:49:24.979Z,87.90
2022-10-12T18:52:26.602Z,87.93
2022-10-12T18:54:53.924Z,87.18
2022-10-12T18:57:31.571Z,87.14
2022-10-12T19:00:01.867Z,86.80
2022-10-12T19:02:41.279Z,86.78
2022-10-12T19:05:36.068Z,86.70
2022-10-12T19:08:27.731Z,87.23
2022-10-12T19:11:06.602Z,87.47
2022-10-12T19:13:37.146Z,87.52
2022-10-12T19:19:13.336Z,87.53
2022-10-12T19:21:53.526Z,87.71
2022-10-12T19:24:37.950Z,87.95
2022-10-12T19:27:16.922Z,87.86
2022-10-12T19:30:01.110Z,88.18
2022-10-12T19:35:36.081Z,88.63
2022-10-12T19:38:10.090Z,88.77
2022-10-12T19:40:39.771Z,88.75
2022-10-12T19:43:12.000Z,88.37
2022-10-12T19:45:59.597Z,88.64
2022-10-12T19:48:36.857Z,89.04
2022-10-12T19:51:29.244Z,89.33
2022-10-12T19:54:03.749Z,89.76
2022-10-12T19:57:21.626Z,89.55
2022-10-12T20:00:04.695Z,88.68
2022-10-12T20:02:48.135Z,88.69
2022-10-12T20:05:28.361Z,88.30
2022-10-12T20:11:16.950Z,87.81
2022-10-12T20:16:48.696Z,87.02
2022-10-12T20:19:21.383Z,87.03
2022-10-12T20:22:15.583Z,86.90
2022-10-12T20:25:15.173Z,86.39
2022-10-12T20:27:53.267Z,85.18
2022-10-12T20:30:58.754Z,84.14
2022-10-12T20:33:35.242Z,82.10
2022-10-12T20:36:03.959Z,80.92
2022-10-12T20:38:49.820Z,80.59
2022-10-12T20:41:45.995Z,79.96
2022-10-12T20:44:15.421Z,78.86
2022-10-12T20:46:57.285Z,78.14
2022-10-12T20:49:30.409Z,77.46
2022-10-12T20:52:00.440Z,76.54
2022-10-12T20:54:43.842Z,76.03
2022-10-12T20:57:30.962Z,75.46
2022-10-12T21:00:32.783Z,74.98
2022-10-12T21:03:01.627Z,74.61
2022-10-12T21:05:53.713Z,73.92
2022-10-12T21:08:28.059Z,73.70
2022-10-12T21:10:56.838Z,73.40
2022-10-12T21:13:52.938Z,73.03
2022-10-12T21:16:39.689Z,72.71
2022-10-12T21:19:41.308Z,72.56
2022-10-12T21:24:48.584Z,71.86
2022-10-12T21:27:22.516Z,71.64
2022-10-12T21:29:59.158Z,71.31
2022-10-12T21:32:30.091Z,70.98
2022-10-12T21:35:11.775Z,70.70
2022-10-12T21:37:45.661Z,70.58
2022-10-12T21:40:42.752Z,70.39
2022-10-12T21:43:17.376Z,69.91
2022-10-12T21:45:46.810Z,69.56
2022-10-12T21:48:26.223Z,69.56
2022-10-12T21:51:30.541Z,69.49
2022-10-12T21:54:14.570Z,69.58
2022-10-12T21:56:58.913Z,69.43
2022-10-12T21:59:48.464Z,69.53
2022-10-12T22:02:45.311Z,69.79
2022-10-12T22:05:50.495Z,70.13
2022-10-12T22:11:56.316Z,70.31
2022-10-12T22:14:22.939Z,70.61
2022-10-12T22:16:57.164Z,70.89
2022-10-12T22:19:33.358Z,71.77
2022-10-12T22:22:24.612Z,72.27
2022-10-12T22:24:58.466Z,72.87
2022-10-12T22:27:42.906Z,72.86
2022-10-12T22:30:46.606Z,72.90
2022-10-12T22:33:34.576Z,72.63
2022-10-12T22:36:08.323Z,72.39
2022-10-12T22:38:41.276Z,72.74
2022-10-12T22:41:22.116Z,72.66
2022-10-12T22:47:28.411Z,72.85
2022-10-12T22:50:34.270Z,72.82
2022-10-12T22:53:07.465Z,72.71
2022-10-12T22:55:40.635Z,72.45
2022-10-12T22:59:11.216Z,71.80
2022-10-12T23:01:46.517Z,72.17
2022-10-12T23:04:17.671Z,72.25
2022-10-12T23:06:59.943Z,72.17
2022-10-12T23:09:30.021Z,71.85
2022-10-12T23:12:16.849Z,71.45
2022-10-12T23:14:50.867Z,71.20
2022-10-12T23:17:17.517Z,70.89
2022-10-12T23:20:02.055Z,71.18
2022-10-12T23:22:31.457Z,70.86
2022-10-12T23:25:04.830Z,71.47
2022-10-12T23:27:49.771Z,71.93
2022-10-12T23:30:19.611Z,71.83
2022-10-12T23:33:59.857Z,72.36
2022-10-12T23:36:39.018Z,73.30
2022-10-12T23:39:52.302Z,73.69
2022-10-12T23:43:04.892Z,74.48
2022-10-12T23:45:35.190Z,74.72
2022-10-12T23:48:16.271Z,75.08
2022-10-12T23:53:40.204Z,75.84
2022-10-12T23:56:42.048Z,75.59
2022-10-12T23:59:22.254Z,75.58
